Time;durP1;ratioP1;P1;durP2;ratioP2;P2;SDS_P1;SDS_P2;PMS_P1;PMS_P2;Temp;Humidity;BMP_temperature;BMP_pressure;BME280_temperature;BME280_humidity;BME280_pressure;Samples;Min_cycle;Max_cycle;Signal;HPM_P1;HPM_P2
2022/01/27 00:05:04;;;;;;;40.45;21.38;;;4.60;99.90;;;;;;5035271;28;20053;-74
2022/01/27 00:07:32;;;;;;;52.05;25.02;;;4.80;99.90;;;;;;5035939;28;20057;-74
2022/01/27 00:10:16;;;;;;;44.10;20.83;;;4.60;99.90;;;;;;5035606;28;20045;-74
2022/01/27 00:12:43;;;;;;;54.85;23.70;;;4.60;99.90;;;;;;5036079;28;20413;-75
2022/01/27 00:15:12;;;;;;;40.75;20.38;;;4.60;99.90;;;;;;5035447;28;20132;-75
2022/01/27 00:17:43;;;;;;;46.17;22.08;;;4.50;99.90;;;;;;5034306;28;20060;-74
2022/01/27 00:20:10;;;;;;;44.13;21.00;;;4.50;99.90;;;;;;5035463;28;20037;-76
2022/01/27 00:22:36;;;;;;;45.88;21.08;;;4.50;99.90;;;;;;5035399;28;20053;-75
2022/01/27 00:25:03;;;;;;;49.25;21.10;;;4.90;99.90;;;;;;5035599;28;20366;-76
2022/01/27 00:27:29;;;;;;;40.88;17.60;;;4.50;99.90;;;;;;5035253;28;20056;-75
2022/01/27 00:29:55;;;;;;;52.47;22.55;;;4.50;99.90;;;;;;5035260;28;20067;-76
2022/01/27 00:32:21;;;;;;;47.47;22.17;;;4.60;99.90;;;;;;5035660;28;20128;-74
2022/01/27 00:34:46;;;;;;;52.55;24.08;;;4.50;99.90;;;;;;5035138;28;20049;-76
2022/01/27 00:37:12;;;;;;;44.08;20.15;;;4.70;99.90;;;;;;5035577;28;20049;-74
2022/01/27 00:39:38;;;;;;;42.15;20.42;;;4.60;99.90;;;;;;5035288;28;20052;-77
2022/01/27 00:42:04;;;;;;;46.25;21.58;;;4.60;99.90;;;;;;5035349;28;20041;-75
2022/01/27 00:44:30;;;;;;;49.25;23.20;;;4.60;99.90;;;;;;5033437;28;20092;-73
2022/01/27 00:46:55;;;;;;;50.60;23.88;;;4.90;99.90;;;;;;5035759;28;20080;-75
2022/01/27 00:49:21;;;;;;;45.85;21.48;;;4.60;99.90;;;;;;5035379;28;20530;-75
2022/01/27 00:51:47;;;;;;;45.92;20.45;;;4.70;99.90;;;;;;5034810;28;20056;-74
2022/01/27 00:54:20;;;;;;;45.33;22.70;;;4.60;99.90;;;;;;5034788;28;20052;-76
2022/01/27 00:57:01;;;;;;;45.55;20.52;;;4.60;99.90;;;;;;5035313;28;20049;-74
2022/01/27 00:59:42;;;;;;;45.90;22.42;;;4.60;99.90;;;;;;5033494;28;20053;-75
2022/01/27 01:04:37;;;;;;;41.38;21.10;;;4.70;99.90;;;;;;5034550;28;20049;-75
2022/01/27 01:07:04;;;;;;;44.55;21.90;;;5.00;99.90;;;;;;5034509;28;20045;-74
2022/01/27 01:14:58;;;;;;;47.78;23.60;;;4.60;99.90;;;;;;4979998;28;20049;-76
2022/01/27 01:17:55;;;;;;;42.92;22.02;;;4.60;99.90;;;;;;5034325;28;20049;-76
2022/01/27 01:34:32;;;;;;;44.58;21.85;;;4.60;99.90;;;;;;5034123;28;20060;-76
2022/01/27 01:36:48;;;;;;;39.25;20.23;;;5.00;99.90;;;;;;5020871;28;20053;-74
2022/01/27 01:39:14;;;;;;;46.08;23.13;;;4.60;99.90;;;;;;5033980;28;20044;-75
2022/01/27 01:41:40;;;;;;;42.03;20.85;;;4.80;99.90;;;;;;5033830;28;20045;-74
2022/01/27 01:44:06;;;;;;;39.10;19.38;;;4.60;99.90;;;;;;5034388;28;20140;-75
2022/01/27 01:46:34;;;;;;;44.67;21.55;;;4.60;99.90;;;;;;5033882;28;20061;-74
2022/01/27 01:48:59;;;;;;;46.42;23.27;;;4.60;99.90;;;;;;5033848;28;20485;-75
2022/01/27 01:51:28;;;;;;;48.42;23.65;;;4.60;99.90;;;;;;5033756;28;20045;-76
2022/01/27 01:53:55;;;;;;;40.45;18.67;;;4.60;99.90;;;;;;5034552;28;20362;-75
2022/01/27 01:56:21;;;;;;;43.10;19.67;;;4.80;99.90;;;;;;5032984;28;20049;-76
2022/01/27 01:58:46;;;;;;;34.67;17.90;;;4.60;99.90;;;;;;5033524;28;20056;-74
2022/01/27 02:01:13;;;;;;;41.50;19.38;;;4.60;99.90;;;;;;5033626;28;20060;-74
2022/01/27 02:03:38;;;;;;;36.03;17.67;;;4.60;99.90;;;;;;5032609;28;20080;-74
2022/01/27 02:06:05;;;;;;;37.58;17.05;;;4.60;99.90;;;;;;5034264;28;20458;-75
2022/01/27 02:19:24;;;;;;;36.50;19.65;;;4.70;99.90;;;;;;5034182;28;20111;-76
2022/01/27 02:22:10;;;;;;;39.72;18.17;;;4.60;99.90;;;;;;5033338;28;20045;-75
2022/01/27 02:24:37;;;;;;;36.87;20.97;;;4.80;99.90;;;;;;5033379;28;20092;-76
2022/01/27 02:27:04;;;;;;;39.58;19.40;;;5.60;99.90;;;;;;5033380;28;20276;-75
2022/01/27 02:29:30;;;;;;;34.78;18.73;;;4.70;99.90;;;;;;5033507;28;20046;-75
2022/01/27 02:31:59;;;;;;;38.17;18.38;;;4.70;99.90;;;;;;5032148;28;20352;-75
2022/01/27 02:34:25;;;;;;;40.78;19.10;;;4.70;99.90;;;;;;5033238;28;20056;-75
2022/01/27 02:36:51;;;;;;;42.70;19.27;;;4.70;99.90;;;;;;5032308;28;20045;-76
2022/01/27 02:39:17;;;;;;;37.95;18.90;;;5.10;99.90;;;;;;5033110;28;20434;-76
2022/01/27 02:41:55;;;;;;;39.35;20.50;;;4.80;99.90;;;;;;5033088;28;20052;-75
2022/01/27 02:44:33;;;;;;;43.63;19.77;;;4.80;99.90;;;;;;5032527;28;20053;-76
2022/01/27 02:46:59;;;;;;;36.78;19.38;;;4.80;99.90;;;;;;5033961;28;20049;-75
2022/01/27 02:49:25;;;;;;;39.38;16.40;;;4.80;99.90;;;;;;5031845;28;20045;-75
2022/01/27 02:51:52;;;;;;;35.72;18.77;;;4.80;99.90;;;;;;5032141;28;20052;-76
2022/01/27 02:54:18;;;;;;;40.92;20.35;;;4.80;99.90;;;;;;5032750;28;20517;-75
2022/01/27 02:56:46;;;;;;;38.95;20.20;;;4.80;99.90;;;;;;5031886;28;20063;-74
2022/01/27 02:59:13;;;;;;;44.63;20.95;;;4.80;99.90;;;;;;5033224;28;20033;-75
2022/01/27 03:01:39;;;;;;;33.60;16.23;;;4.90;99.90;;;;;;5033003;28;20041;-75
2022/01/27 03:04:05;;;;;;;38.47;20.33;;;4.70;99.90;;;;;;5033236;28;20466;-75
2022/01/27 03:06:30;;;;;;;34.53;18.10;;;4.90;99.90;;;;;;5033175;28;20398;-74
2022/01/27 03:08:56;;;;;;;38.08;19.70;;;4.80;99.90;;;;;;5032952;28;20553;-75
2022/01/27 03:11:47;;;;;;;47.50;21.58;;;4.80;99.90;;;;;;5032660;28;20037;-76
2022/01/27 03:14:19;;;;;;;39.25;19.52;;;4.90;99.90;;;;;;5033466;28;20441;-75
2022/01/27 03:16:45;;;;;;;44.30;20.73;;;4.80;99.90;;;;;;5032276;28;20060;-75
2022/01/27 03:19:11;;;;;;;34.38;17.30;;;5.20;99.90;;;;;;5032083;28;20054;-76
2022/01/27 03:21:37;;;;;;;38.17;18.33;;;4.80;99.90;;;;;;5033164;28;20132;-74
2022/01/27 03:24:03;;;;;;;39.25;18.48;;;4.90;99.90;;;;;;5032973;28;20081;-76
2022/01/27 03:26:29;;;;;;;39.20;21.42;;;4.80;99.90;;;;;;5034637;28;20132;-76
2022/01/27 03:28:56;;;;;;;37.08;16.65;;;4.90;99.90;;;;;;5036938;28;20132;-77
2022/01/27 03:31:22;;;;;;;36.78;19.73;;;5.20;99.90;;;;;;5036343;28;20092;-76
2022/01/27 03:33:47;;;;;;;37.78;19.38;;;4.90;99.90;;;;;;5035413;28;20041;-75
2022/01/27 03:36:14;;;;;;;37.88;18.45;;;5.20;99.90;;;;;;5035401;28;20049;-74
2022/01/27 03:38:40;;;;;;;42.42;20.20;;;4.90;99.90;;;;;;5036264;28;20455;-75
2022/01/27 03:41:07;;;;;;;37.67;17.95;;;4.90;99.90;;;;;;5036024;28;20044;-75
2022/01/27 03:43:34;;;;;;;41.78;18.95;;;5.00;99.90;;;;;;5036669;28;20045;-75
2022/01/27 03:46:01;;;;;;;44.95;20.48;;;5.00;99.90;;;;;;5036193;28;20064;-75
2022/01/27 03:48:27;;;;;;;34.67;18.10;;;5.10;99.90;;;;;;5034509;28;20511;-76
2022/01/27 03:50:53;;;;;;;37.58;18.40;;;5.00;99.90;;;;;;5036237;28;20379;-75
2022/01/27 03:53:19;;;;;;;43.47;19.95;;;5.00;99.90;;;;;;5035214;28;20060;-75
2022/01/27 03:55:45;;;;;;;36.55;17.05;;;5.00;99.90;;;;;;5035822;28;20085;-74
2022/01/27 03:58:11;;;;;;;42.50;18.65;;;4.90;99.90;;;;;;5035186;28;20042;-75
2022/01/27 04:00:37;;;;;;;38.42;18.95;;;5.00;99.90;;;;;;5034605;28;20052;-76
2022/01/27 04:03:05;;;;;;;40.45;19.30;;;5.00;99.90;;;;;;5035763;28;20052;-76
2022/01/27 04:05:37;;;;;;;43.17;18.23;;;4.90;99.90;;;;;;5035818;28;20115;-76
2022/01/27 04:08:04;;;;;;;41.25;19.23;;;4.90;99.90;;;;;;5035750;28;20132;-75
2022/01/27 04:10:30;;;;;;;40.72;20.45;;;4.80;99.90;;;;;;5035660;28;20128;-76
2022/01/27 04:12:56;;;;;;;47.38;20.58;;;5.00;99.90;;;;;;5035755;28;20545;-76
2022/01/27 04:15:22;;;;;;;42.08;19.02;;;4.90;99.90;;;;;;5034551;28;20136;-75
2022/01/27 04:17:48;;;;;;;37.72;17.95;;;5.00;99.90;;;;;;5035483;28;20056;-75
2022/01/27 04:20:14;;;;;;;39.50;19.65;;;4.90;99.90;;;;;;5033910;28;20037;-75
2022/01/27 04:22:40;;;;;;;41.67;19.00;;;4.90;99.90;;;;;;5035243;28;20049;-76
2022/01/27 04:25:06;;;;;;;40.58;18.88;;;4.90;99.90;;;;;;5035856;28;20132;-75
2022/01/27 04:27:35;;;;;;;43.75;19.60;;;4.90;99.90;;;;;;5035627;28;20056;-75
2022/01/27 04:30:04;;;;;;;40.72;19.20;;;5.10;99.90;;;;;;5034032;28;20041;-76
2022/01/27 04:32:35;;;;;;;38.58;18.45;;;5.00;99.90;;;;;;5035203;28;20482;-74
2022/01/27 04:35:04;;;;;;;40.85;18.63;;;5.20;99.90;;;;;;5035015;28;20085;-76
2022/01/27 04:37:35;;;;;;;39.40;18.40;;;4.90;99.90;;;;;;5034665;28;20049;-75
2022/01/27 04:40:09;;;;;;;43.25;20.83;;;5.00;99.90;;;;;;5035049;28;20048;-75
2022/01/27 04:42:55;;;;;;;35.67;17.70;;;5.00;99.90;;;;;;5033740;28;20502;-75
2022/01/27 04:45:25;;;;;;;39.65;18.63;;;5.00;99.90;;;;;;5034462;28;20057;-77
2022/01/27 04:47:57;;;;;;;41.67;18.30;;;5.10;99.90;;;;;;5035503;28;20041;-77
2022/01/27 04:50:23;;;;;;;36.97;16.70;;;5.00;99.90;;;;;;5035183;28;20049;-76
2022/01/27 04:52:51;;;;;;;33.78;16.40;;;5.40;99.90;;;;;;5034144;28;20049;-75
2022/01/27 04:55:20;;;;;;;36.40;17.27;;;5.10;99.90;;;;;;5034084;28;20050;-77
2022/01/27 04:57:46;;;;;;;37.42;18.90;;;5.10;99.90;;;;;;5034565;28;20053;-75
2022/01/27 05:00:15;;;;;;;34.30;17.45;;;5.30;99.90;;;;;;5035152;28;20058;-75
2022/01/27 05:02:54;;;;;;;40.10;18.15;;;5.20;99.90;;;;;;5033622;28;20085;-75
2022/01/27 05:05:21;;;;;;;37.10;18.77;;;5.20;99.90;;;;;;5035092;28;20108;-78
2022/01/27 05:07:55;;;;;;;33.80;17.27;;;5.20;99.90;;;;;;5035024;28;20045;-75
2022/01/27 05:10:24;;;;;;;37.70;19.27;;;5.70;99.90;;;;;;5034330;28;20092;-75
2022/01/27 05:12:52;;;;;;;38.58;18.17;;;5.20;99.90;;;;;;5034319;28;20124;-75
2022/01/27 05:15:18;;;;;;;34.08;17.77;;;5.20;99.90;;;;;;5034260;28;20045;-75
2022/01/27 05:17:44;;;;;;;41.50;17.98;;;5.20;99.90;;;;;;5034285;28;20111;-76
2022/01/27 05:20:10;;;;;;;36.83;16.55;;;5.50;99.90;;;;;;5034976;28;20037;-76
2022/01/27 05:22:36;;;;;;;39.42;19.08;;;5.30;99.90;;;;;;5033846;28;20050;-76
2022/01/27 05:25:02;;;;;;;33.05;15.25;;;5.30;99.90;;;;;;5033238;28;20125;-76
2022/01/27 05:27:28;;;;;;;40.22;18.35;;;5.30;99.90;;;;;;5034175;28;20053;-77
2022/01/27 05:29:53;;;;;;;38.15;19.00;;;5.80;99.90;;;;;;5034091;28;20041;-74
2022/01/27 05:32:19;;;;;;;33.38;16.42;;;5.50;99.90;;;;;;5034378;28;20095;-76
2022/01/27 05:34:47;;;;;;;39.38;18.25;;;5.30;99.90;;;;;;5033967;28;20045;-77
2022/01/27 05:37:12;;;;;;;36.63;18.55;;;5.90;99.90;;;;;;5033956;28;20042;-77
2022/01/27 05:39:38;;;;;;;39.35;18.25;;;5.30;99.90;;;;;;5032766;28;20355;-76
2022/01/27 05:42:04;;;;;;;35.67;16.67;;;5.30;99.90;;;;;;5034097;28;20045;-76
2022/01/27 05:44:32;;;;;;;30.67;15.38;;;5.30;99.90;;;;;;5033645;28;20057;-75
2022/01/27 05:46:58;;;;;;;34.22;15.63;;;5.40;99.90;;;;;;5033740;28;20089;-75
2022/01/27 05:49:24;;;;;;;36.72;16.38;;;5.40;99.90;;;;;;5031913;28;20465;-75
2022/01/27 05:51:50;;;;;;;36.92;15.73;;;5.40;99.90;;;;;;5034247;28;20041;-77
2022/01/27 05:54:15;;;;;;;37.17;16.30;;;5.40;99.90;;;;;;5033715;28;20052;-75
2022/01/27 05:56:41;;;;;;;33.50;15.45;;;5.40;99.90;;;;;;5033668;28;20056;-76
2022/01/27 05:59:07;;;;;;;40.38;17.30;;;5.40;99.90;;;;;;5033502;28;20053;-75
2022/01/27 06:01:33;;;;;;;43.55;18.90;;;5.30;99.90;;;;;;5033581;28;20052;-75
2022/01/27 06:03:58;;;;;;;40.38;18.08;;;5.40;99.90;;;;;;5032546;28;20451;-75
2022/01/27 06:06:24;;;;;;;42.85;21.10;;;5.30;99.90;;;;;;5033464;28;20129;-77
2022/01/27 06:08:49;;;;;;;34.65;17.85;;;5.30;99.90;;;;;;5033700;28;20048;-77
2022/01/27 06:11:15;;;;;;;45.00;19.25;;;5.50;99.90;;;;;;5032468;28;20133;-75
2022/01/27 06:13:41;;;;;;;43.38;17.70;;;5.40;99.90;;;;;;5034167;28;20046;-75
2022/01/27 06:16:11;;;;;;;41.90;17.17;;;5.10;99.90;;;;;;5032492;28;20049;-75
2022/01/27 06:18:38;;;;;;;41.42;19.50;;;5.10;99.90;;;;;;5032368;28;20057;-78
2022/01/27 06:21:06;;;;;;;45.83;16.83;;;5.20;99.90;;;;;;5033209;28;20038;-77
2022/01/27 06:23:31;;;;;;;43.88;18.33;;;5.10;99.90;;;;;;5032972;28;20624;-76
2022/01/27 06:25:59;;;;;;;43.53;20.33;;;5.10;99.90;;;;;;5034118;28;20072;-78
2022/01/27 06:28:24;;;;;;;45.65;19.55;;;5.10;99.90;;;;;;5033253;28;20053;-77
2022/01/27 06:30:50;;;;;;;50.33;20.45;;;5.10;99.90;;;;;;5033232;28;20037;-75
2022/01/27 06:33:16;;;;;;;48.08;20.55;;;5.20;99.90;;;;;;5032227;28;20472;-78
2022/01/27 06:35:41;;;;;;;44.08;20.13;;;5.00;99.90;;;;;;5033483;28;20091;-76
2022/01/27 06:38:08;;;;;;;41.15;18.25;;;5.00;99.90;;;;;;5033670;28;20046;-75
2022/01/27 06:40:34;;;;;;;47.53;20.52;;;5.00;99.90;;;;;;5032731;28;20482;-76
2022/01/27 06:42:59;;;;;;;46.72;20.33;;;5.10;99.90;;;;;;5033020;28;20059;-75
2022/01/27 06:45:25;;;;;;;46.95;20.98;;;5.40;99.90;;;;;;5033038;28;20061;-76
2022/01/27 06:47:51;;;;;;;46.10;19.63;;;5.30;99.90;;;;;;5033364;28;20053;-78
2022/01/27 06:50:17;;;;;;;41.70;18.48;;;5.00;99.90;;;;;;5033139;28;20045;-75
2022/01/27 06:52:43;;;;;;;41.58;18.92;;;5.00;99.90;;;;;;5033044;28;20132;-76
2022/01/27 06:55:10;;;;;;;44.03;21.20;;;5.10;99.90;;;;;;5033004;28;20049;-74
2022/01/27 06:57:36;;;;;;;44.75;19.02;;;5.00;99.90;;;;;;5033042;28;20056;-75
2022/01/27 07:00:05;;;;;;;44.33;19.65;;;5.00;99.90;;;;;;5034624;28;20037;-76
2022/01/27 07:02:30;;;;;;;46.05;20.35;;;5.00;99.90;;;;;;5036783;28;20045;-76
2022/01/27 07:04:57;;;;;;;44.80;19.70;;;5.00;99.90;;;;;;5037080;28;20053;-75
2022/01/27 07:07:22;;;;;;;45.38;21.90;;;5.20;99.90;;;;;;5035534;28;20509;-77
2022/01/27 07:09:48;;;;;;;48.08;20.17;;;5.00;99.90;;;;;;5036722;28;20050;-76
2022/01/27 07:12:14;;;;;;;42.72;19.90;;;5.00;99.90;;;;;;5036592;28;20054;-79
2022/01/27 07:14:39;;;;;;;44.17;20.30;;;5.10;99.90;;;;;;5036644;28;20049;-76
2022/01/27 07:17:05;;;;;;;41.72;20.63;;;5.10;99.90;;;;;;5036522;28;20049;-78
2022/01/27 07:19:31;;;;;;;39.70;18.05;;;5.80;99.90;;;;;;5036402;28;20072;-76
2022/01/27 07:21:57;;;;;;;40.42;20.60;;;5.10;99.90;;;;;;5036533;28;20081;-73
2022/01/27 07:24:23;;;;;;;46.42;19.95;;;5.10;99.90;;;;;;5036482;28;20452;-73
2022/01/27 07:26:49;;;;;;;34.10;14.70;;;5.40;99.90;;;;;;5037373;28;20049;-72
2022/01/27 07:29:15;;;;;;;36.40;15.93;;;5.20;99.90;;;;;;5036433;28;20496;-72
2022/01/27 07:31:41;;;;;;;38.83;17.67;;;5.20;99.90;;;;;;5036888;28;20089;-72
2022/01/27 07:34:07;;;;;;;37.85;18.08;;;5.20;99.90;;;;;;5035021;28;20081;-72
2022/01/27 07:36:33;;;;;;;30.88;15.52;;;5.20;99.90;;;;;;5036095;28;20088;-74
2022/01/27 07:39:00;;;;;;;40.33;17.17;;;5.20;99.90;;;;;;5036631;28;20049;-74
2022/01/27 07:41:26;;;;;;;34.10;17.45;;;5.20;99.90;;;;;;5035993;28;20084;-73
2022/01/27 07:43:52;;;;;;;36.30;16.48;;;5.30;99.90;;;;;;5035878;28;20050;-73
2022/01/27 07:46:17;;;;;;;31.10;15.55;;;5.30;99.90;;;;;;5036640;28;20056;-73
2022/01/27 07:48:43;;;;;;;35.63;16.42;;;5.60;99.90;;;;;;5036004;28;20045;-73
2022/01/27 07:51:10;;;;;;;33.13;15.80;;;5.30;99.90;;;;;;5035951;28;20088;-74
2022/01/27 07:53:37;;;;;;;36.70;15.20;;;5.30;99.90;;;;;;5035763;28;20056;-75
2022/01/27 07:56:04;;;;;;;33.33;15.73;;;5.30;99.90;;;;;;5035898;28;20049;-74
2022/01/27 07:58:31;;;;;;;30.35;15.27;;;5.30;99.90;;;;;;5034783;28;20084;-74
2022/01/27 08:00:57;;;;;;;27.85;13.30;;;5.40;99.90;;;;;;5035716;28;20037;-74
2022/01/27 08:03:23;;;;;;;29.52;15.18;;;5.40;99.90;;;;;;5035703;28;20052;-74
2022/01/27 08:05:50;;;;;;;30.58;14.18;;;5.40;99.90;;;;;;5036451;28;20050;-74
2022/01/27 08:08:15;;;;;;;29.42;15.45;;;5.40;99.90;;;;;;5035620;28;20045;-74
2022/01/27 08:10:41;;;;;;;36.72;15.45;;;5.50;99.90;;;;;;5034679;28;20055;-74
2022/01/27 08:13:09;;;;;;;30.80;13.07;;;5.50;99.90;;;;;;5034439;28;20042;-75
2022/01/27 08:15:35;;;;;;;24.95;12.18;;;5.50;99.90;;;;;;5034730;28;20049;-79
2022/01/27 08:18:02;;;;;;;25.80;12.80;;;5.50;99.90;;;;;;5034117;28;20128;-76
2022/01/27 08:20:28;;;;;;;28.80;13.15;;;5.50;99.90;;;;;;5035319;28;20045;-79
2022/01/27 08:22:55;;;;;;;23.60;11.18;;;5.60;99.90;;;;;;5035295;28;20069;-75
2022/01/27 08:25:22;;;;;;;26.42;13.50;;;5.60;99.90;;;;;;5035242;28;20386;-75
2022/01/27 08:27:50;;;;;;;26.98;14.68;;;5.60;99.90;;;;;;5035219;28;20049;-75
2022/01/27 08:30:18;;;;;;;23.55;11.40;;;5.80;99.90;;;;;;5035180;28;20107;-77
2022/01/27 08:35:18;;;;;;;29.13;14.50;;;5.80;99.90;;;;;;5017950;28;20140;-76
2022/01/27 08:37:44;;;;;;;33.55;14.80;;;6.00;99.90;;;;;;5035167;28;20049;-78
2022/01/27 08:40:14;;;;;;;32.20;13.18;;;5.90;99.90;;;;;;5035016;28;20041;-77
2022/01/27 08:42:43;;;;;;;37.38;15.05;;;5.90;99.90;;;;;;5034835;28;20095;-77
2022/01/27 08:45:11;;;;;;;34.95;14.95;;;5.90;99.90;;;;;;5034990;28;20072;-78
2022/01/27 08:47:37;;;;;;;37.25;14.30;;;5.90;99.90;;;;;;5034891;28;20164;-75
2022/01/27 08:50:05;;;;;;;32.20;16.05;;;5.90;99.90;;;;;;5035395;28;20503;-76
2022/01/27 08:52:31;;;;;;;30.20;14.90;;;6.00;99.90;;;;;;5033613;28;20049;-74
2022/01/27 08:54:57;;;;;;;30.58;12.82;;;6.00;99.90;;;;;;5034260;28;20560;-75
2022/01/27 08:57:23;;;;;;;37.03;15.57;;;6.20;99.90;;;;;;5033826;28;20132;-78
2022/01/27 08:59:51;;;;;;;38.78;17.17;;;6.10;99.90;;;;;;5033403;28;20075;-77
2022/01/27 09:02:16;;;;;;;44.03;16.13;;;6.10;99.90;;;;;;5034618;28;20084;-78
2022/01/27 09:04:42;;;;;;;38.22;14.85;;;6.20;99.90;;;;;;5035004;28;20049;-76
2022/01/27 09:07:08;;;;;;;37.83;16.52;;;6.30;99.90;;;;;;5033509;28;20398;-78
2022/01/27 09:09:33;;;;;;;38.35;16.52;;;6.30;99.90;;;;;;5034529;28;20068;-78
2022/01/27 09:12:00;;;;;;;32.92;13.70;;;6.40;99.90;;;;;;5034415;28;20083;-75
2022/01/27 09:14:31;;;;;;;35.75;14.43;;;6.40;99.90;;;;;;5034720;28;20084;-76
2022/01/27 09:16:58;;;;;;;32.95;14.18;;;6.50;99.90;;;;;;5034430;28;20042;-74
2022/01/27 09:19:28;;;;;;;32.75;13.52;;;6.50;99.90;;;;;;5035057;28;20041;-74
2022/01/27 09:21:54;;;;;;;34.45;14.38;;;6.60;99.90;;;;;;5035091;28;20053;-76
2022/01/27 09:24:28;;;;;;;35.78;14.40;;;6.70;99.90;;;;;;5034095;28;20137;-76
2022/01/27 09:27:00;;;;;;;30.02;13.40;;;6.70;99.90;;;;;;5034762;28;20100;-77
2022/01/27 09:29:27;;;;;;;29.75;11.98;;;6.80;99.90;;;;;;5034138;28;20042;-75
2022/01/27 09:31:54;;;;;;;23.90;9.02;;;6.80;99.90;;;;;;5033987;28;20405;-76
2022/01/27 09:34:20;;;;;;;25.88;9.80;;;6.80;99.90;;;;;;5033905;28;20465;-77
2022/01/27 09:36:46;;;;;;;30.17;12.60;;;6.90;99.90;;;;;;5032711;28;20081;-76
2022/01/27 09:39:14;;;;;;;24.88;10.18;;;6.90;99.90;;;;;;5033820;28;20054;-77
2022/01/27 09:41:41;;;;;;;22.67;10.38;;;6.90;99.90;;;;;;5033786;28;20049;-76
2022/01/27 09:44:10;;;;;;;28.48;10.65;;;6.90;99.90;;;;;;5033708;28;20056;-75
2022/01/27 09:46:39;;;;;;;23.98;9.93;;;7.00;99.90;;;;;;5033816;28;20053;-81
2022/01/27 09:49:17;;;;;;;30.40;10.43;;;7.00;99.90;;;;;;5033679;28;20049;-78
2022/01/27 09:51:46;;;;;;;25.05;9.00;;;7.00;99.90;;;;;;5018677;28;20057;-75
2022/01/27 09:54:13;;;;;;;22.70;9.43;;;7.00;99.90;;;;;;5033443;28;20131;-79
2022/01/27 09:56:42;;;;;;;22.77;8.93;;;7.20;99.90;;;;;;5032458;28;20075;-78
2022/01/27 09:59:09;;;;;;;21.13;10.07;;;7.20;99.90;;;;;;5033567;28;20092;-78
2022/01/27 10:01:36;;;;;;;25.20;8.95;;;7.30;99.90;;;;;;5032348;28;20078;-76
2022/01/27 10:04:05;;;;;;;21.38;10.13;;;7.30;99.90;;;;;;5032385;28;20085;-77
2022/01/27 10:06:33;;;;;;;17.73;7.35;;;7.30;99.90;;;;;;5032595;28;20052;-75
2022/01/27 10:09:29;;;;;;;22.70;8.82;;;7.40;99.90;;;;;;5032333;28;20052;-75
2022/01/27 10:11:55;;;;;;;15.00;6.28;;;7.40;99.90;;;;;;5032725;28;20046;-79
2022/01/27 10:14:27;;;;;;;19.30;6.82;;;7.40;99.90;;;;;;5033043;28;20514;-76
2022/01/27 10:16:55;;;;;;;16.40;8.27;;;7.40;99.90;;;;;;5033295;28;20056;-78
2022/01/27 10:19:22;;;;;;;23.08;9.57;;;7.40;99.90;;;;;;5034319;28;20116;-77
2022/01/27 10:21:49;;;;;;;16.05;7.32;;;7.50;99.90;;;;;;5033336;28;20049;-77
2022/01/27 10:24:27;;;;;;;20.38;8.10;;;7.50;99.90;;;;;;5033253;28;20050;-77
2022/01/27 10:27:29;;;;;;;18.95;7.07;;;7.50;99.90;;;;;;5033122;28;20053;-76
2022/01/27 10:32:47;;;;;;;17.27;6.55;;;7.60;99.90;;;;;;5032525;28;20049;-80
2022/01/27 10:35:15;;;;;;;15.48;6.35;;;7.60;99.90;;;;;;5033925;28;20466;-73
2022/01/27 10:38:00;;;;;;;15.43;4.93;;;7.70;99.90;;;;;;5037281;28;20056;-73
2022/01/27 10:40:33;;;;;;;22.05;7.00;;;7.70;99.90;;;;;;5037440;28;20045;-72
2022/01/27 10:43:13;;;;;;;13.75;5.47;;;7.70;99.90;;;;;;5037855;28;20103;-76
2022/01/27 10:45:57;;;;;;;13.98;4.70;;;7.80;99.90;;;;;;5037136;28;20072;-76
2022/01/27 10:48:27;;;;;;;21.23;5.10;;;7.80;99.90;;;;;;5019932;28;20063;-74
2022/01/27 10:53:45;;;;;;;14.00;5.40;;;7.90;99.90;;;;;;5035851;28;20080;-77
2022/01/27 10:56:18;;;;;;;15.85;5.05;;;7.90;99.90;;;;;;5036113;28;20141;-77
2022/01/27 10:58:44;;;;;;;12.43;5.18;;;8.00;99.90;;;;;;5019482;28;20057;-78
2022/01/27 11:01:10;;;;;;;13.98;4.90;;;8.00;99.90;;;;;;5036338;28;20083;-80
2022/01/27 11:03:36;;;;;;;14.35;4.55;;;8.00;99.90;;;;;;5035988;28;20045;-79
2022/01/27 11:06:09;;;;;;;17.23;5.25;;;8.00;99.90;;;;;;5037410;28;20466;-80
2022/01/27 11:08:37;;;;;;;18.40;4.55;;;8.00;99.90;;;;;;5036829;28;20409;-81
2022/01/27 11:11:05;;;;;;;15.98;5.22;;;8.00;99.90;;;;;;5035807;28;20053;-80
2022/01/27 11:13:30;;;;;;;11.05;5.25;;;8.10;99.90;;;;;;5019117;28;20054;-80
2022/01/27 11:15:57;;;;;;;13.95;4.30;;;8.00;99.90;;;;;;5036669;28;20045;-82
2022/01/27 11:18:24;;;;;;;12.57;4.53;;;8.10;99.90;;;;;;5036653;28;20052;-83
2022/01/27 11:26:08;;;;;;;11.02;4.53;;;8.10;99.90;;;;;;5035718;28;20049;-82
2022/01/27 11:28:34;;;;;;;14.82;4.55;;;8.10;99.90;;;;;;5036116;28;20053;-80
2022/01/27 11:31:31;;;;;;;12.32;4.03;;;8.10;99.90;;;;;;5036126;28;20447;-82
2022/01/27 11:34:03;;;;;;;9.90;3.40;;;8.10;99.90;;;;;;5036405;28;20049;-79
2022/01/27 11:36:29;;;;;;;13.27;4.57;;;8.10;99.90;;;;;;5035623;28;20581;-81
2022/01/27 11:38:57;;;;;;;7.50;4.05;;;8.20;99.90;;;;;;5036263;28;20136;-79
2022/01/27 11:41:37;;;;;;;18.00;4.15;;;8.10;99.90;;;;;;5035625;28;20549;-79
2022/01/27 11:44:36;;;;;;;11.50;4.30;;;8.20;99.90;;;;;;5035771;28;20049;-77
2022/01/27 11:47:08;;;;;;;14.13;3.92;;;8.10;99.90;;;;;;5035597;28;20041;-79
2022/01/27 11:49:47;;;;;;;13.15;4.00;;;8.10;99.90;;;;;;5036092;28;20041;-78
2022/01/27 11:52:27;;;;;;;13.70;4.07;;;8.20;99.90;;;;;;5035946;28;20049;-78
2022/01/27 11:54:55;;;;;;;9.80;4.07;;;8.20;99.90;;;;;;5035999;28;20045;-77
2022/01/27 11:57:41;;;;;;;9.35;3.40;;;8.30;99.90;;;;;;5018772;28;20390;-76
2022/01/27 12:00:13;;;;;;;12.10;4.20;;;8.30;99.90;;;;;;5036523;28;20400;-78
2022/01/27 12:03:02;;;;;;;13.50;3.38;;;8.30;99.90;;;;;;5034929;28;20053;-79
2022/01/27 12:05:33;;;;;;;11.43;3.55;;;8.30;99.90;;;;;;5036341;28;20057;-79
2022/01/27 12:08:13;;;;;;;10.50;3.53;;;8.30;99.90;;;;;;5018080;28;20073;-81
2022/01/27 12:11:01;;;;;;;11.57;3.15;;;8.30;99.90;;;;;;5035581;28;20470;-76
2022/01/27 12:19:04;;;;;;;10.90;4.35;;;8.30;99.90;;;;;;5035446;28;20049;-77
2022/01/27 12:21:32;;;;;;;10.00;3.30;;;8.30;99.90;;;;;;5034993;28;20049;-76
2022/01/27 12:27:04;;;;;;;11.60;3.40;;;8.40;99.90;;;;;;5035276;28;20057;-78
2022/01/27 12:29:39;;;;;;;12.43;2.78;;;8.40;99.90;;;;;;5035890;28;20045;-76
2022/01/27 12:32:22;;;;;;;15.82;4.53;;;8.40;99.90;;;;;;5034763;28;20136;-78
2022/01/27 12:34:54;;;;;;;11.63;2.95;;;8.40;99.90;;;;;;5035423;28;20490;-79
2022/01/27 12:37:23;;;;;;;18.55;3.60;;;8.50;99.90;;;;;;5035011;28;20056;-78
2022/01/27 12:39:54;;;;;;;15.43;2.85;;;8.60;99.90;;;;;;5035196;28;20444;-78
2022/01/27 12:42:21;;;;;;;11.00;3.13;;;8.60;99.90;;;;;;5034603;28;20052;-78
2022/01/27 12:44:59;;;;;;;10.48;3.28;;;8.50;99.90;;;;;;5035009;28;20053;-79
2022/01/27 12:47:27;;;;;;;16.88;3.00;;;8.60;99.90;;;;;;5034276;28;20061;-79
2022/01/27 12:50:03;;;;;;;12.48;2.97;;;8.50;99.90;;;;;;5035347;28;20037;-77
2022/01/27 12:52:31;;;;;;;;;;;8.50;99.90;;;;;;5035555;28;20076;-78
2022/01/27 12:54:57;;;;;;;9.82;3.88;;;8.50;99.90;;;;;;5035312;28;20327;-78
2022/01/27 12:57:28;;;;;;;10.13;3.00;;;8.60;99.90;;;;;;5033564;28;20100;-77
2022/01/27 12:59:56;;;;;;;11.75;2.40;;;8.60;99.90;;;;;;5034660;28;20083;-76
2022/01/27 13:02:25;;;;;;;11.48;2.60;;;8.60;99.90;;;;;;5033536;28;20049;-79
2022/01/27 13:04:56;;;;;;;14.02;3.35;;;8.60;99.90;;;;;;5034625;28;20081;-79
2022/01/27 13:07:24;;;;;;;12.98;2.05;;;8.60;99.90;;;;;;5034165;28;20046;-79
2022/01/27 13:09:59;;;;;;;9.85;2.70;;;8.60;99.90;;;;;;5033464;28;20045;-78
2022/01/27 13:12:31;;;;;;;9.50;2.75;;;8.60;99.90;;;;;;5034976;28;20052;-77
2022/01/27 13:15:05;;;;;;;6.93;2.30;;;8.70;99.90;;;;;;5034375;28;20050;-77
2022/01/27 13:17:40;;;;;;;11.30;2.60;;;8.70;99.90;;;;;;5034225;28;20076;-77
2022/01/27 13:20:33;;;;;;;7.82;2.50;;;8.70;99.90;;;;;;5034510;28;20052;-78
2022/01/27 13:23:12;;;;;;;8.60;2.50;;;8.70;99.90;;;;;;5034197;28;20131;-78
2022/01/27 13:25:45;;;;;;;10.75;2.70;;;8.70;99.90;;;;;;5034798;28;20049;-77
2022/01/27 13:28:14;;;;;;;16.08;3.55;;;8.80;99.90;;;;;;5034235;28;20052;-78
2022/01/27 13:30:41;;;;;;;15.00;4.07;;;8.70;99.90;;;;;;5033762;28;20549;-79
2022/01/27 13:33:11;;;;;;;12.15;2.30;;;8.70;99.90;;;;;;5034320;28;20049;-78
2022/01/27 13:35:37;;;;;;;14.35;3.58;;;8.70;99.90;;;;;;5034049;28;20048;-77
2022/01/27 13:38:31;;;;;;;15.77;3.78;;;8.90;99.90;;;;;;5032888;28;20049;-77
2022/01/27 13:41:22;;;;;;;9.00;2.75;;;8.70;99.90;;;;;;5032788;28;20042;-77
2022/01/27 13:43:49;;;;;;;9.80;2.92;;;8.60;99.90;;;;;;5033863;28;20128;-78
2022/01/27 13:46:47;;;;;;;15.63;2.70;;;8.60;99.90;;;;;;5032161;28;20402;-78
2022/01/27 13:49:23;;;;;;;6.78;2.13;;;8.60;99.90;;;;;;5034390;28;20119;-78